Waterloo Regional Airport
KALO : now visible

Airfield :











YOU CAN JOIN US ON...

 
LOGIN :

Register | Disclaimer

   EN    FR    IT 

 









Legend :    VFR   Marginal VFR   IFR   Intensive IFR   Very Intensive IFR
Visi :
Ceiling :
>= 8 km
>= 3000ft
5 to 8 km
1000 to 3000 ft
1500m to 5 km
500 to 1000 ft
800 to 1500m
200 to 500 ft
< 800m
< 200 ft
Symbols :   Thunderstorms  Fog  Heavy snow  Heavy precipitations  Wind > 20 kt






- Airport Elevation : 873 ft
- IATA code : ALO


KALO - Waterloo Regional

CURRENT METAR :
  • 202154Z 18014G23KT 10SM OVC026 27/21 A2951 RMK AO2 LTG DSNT NW SLP985 T02670206 $

EXPIRED METARs :
  • 202136Z 19014G21KT 10SM BKN026 BKN034 27/20 A2951 RMK AO2 T02720200 $
  • 202106Z 20014G21KT 10SM SCT025 28/20 A2953 RMK AO2 T02780200 $
  • 202054Z 17017G24KT 10SM BKN025 BKN030 27/20 A2953 RMK AO2 PRESFR SLP995 T02670200 58023 $
  • 202038Z 18015G22KT 10SM BKN023 26/19 A2956 RMK AO2 T02610194 $
  • 201954Z 17015G23KT 10SM FEW022 BKN075 BKN090 26/19 A2959 RMK AO2 SLP014 T02560189 $

TAF KALO
Valid from the 20 at 18:00 until the 21 at 18:00 UTC


201740Z 2018/2118 18008KT P6SM SCT050
FM202200 21012KT P6SM VCTS BKN035CB
FM210200 31014KT P6SM OVC035
FM211700 33018G27KT P6SM FEW200
KZAU FIR / North America



MET'MAP, your aeronautical weather chart ! - Copyright ORBIFLY December 2007 - Disclaimer

ORBIFLY MET'MAP TEAM :

Programming & Development : Alexandra Zaïnal
Concept & original design : Baudouin d'Aumeries
Assistance for programming : Marc-Olivier Méhu
Technical & hardware support : Manuel Goepfert

Contact : metmap@orbifly.com




SOURCES & CREDITS :

   NOAA       Earth
Advisory